Port Clements, Canada
Current Conditions -  °F | °C
As of 6:00 AM on Tuesday 21 Oct 2014 (Local Time) from CYZP Reporting Station
Scattered Clouds Scattered Clouds  
Wind Chill: 42°   Ceiling: Unl
Heat Index: 48°   Visibility: 9mi
Dew Point: 45°   Wind: 18mph
Humidity: 87%   Direction: 160°SSE
Pressure: 29.21"   Gusts: 25mph
Location:  53.68°N, 132.17°W
Report Text: CYZP 211300Z AUTO 16016G22KT 9SM FEW220 SCT240 09/07 A2921 RMK PRESFR SLP892 DENSITY ALT 100FT
Loading
Personal Weather Stations






























Interactive Weather Map
Tropical Storm Tracking
New forecast layout! Learn more

10-Day Weather Forecast

Advertisements
Track Severe Weather on mobile